createdAt,value
2023-09-17T00:02:15.762Z,10.56
2023-09-17T00:04:43.296Z,10.55
2023-09-17T00:07:11.147Z,10.55
2023-09-17T00:09:38.701Z,10.54
2023-09-17T00:12:06.208Z,10.54
2023-09-17T00:14:33.588Z,10.51
2023-09-17T00:17:01.000Z,10.51
2023-09-17T00:19:28.659Z,10.50
2023-09-17T00:21:56.067Z,10.49
2023-09-17T00:24:23.601Z,10.47
2023-09-17T00:26:50.834Z,10.45
2023-09-17T00:29:18.246Z,10.45
2023-09-17T00:31:45.612Z,10.44
2023-09-17T00:34:13.041Z,10.43
2023-09-17T00:36:40.430Z,10.43
2023-09-17T00:39:08.165Z,10.43
2023-09-17T00:41:35.463Z,10.42
2023-09-17T00:44:03.380Z,10.43
2023-09-17T00:46:32.167Z,10.43
2023-09-17T00:49:00.992Z,10.39
2023-09-17T00:51:29.344Z,10.38
2023-09-17T00:53:57.580Z,10.36
2023-09-17T00:56:26.676Z,10.35
2023-09-17T00:58:55.417Z,10.35
2023-09-17T01:01:23.356Z,10.34
2023-09-17T01:03:51.482Z,10.34
2023-09-17T01:06:19.839Z,10.35
2023-09-17T01:08:48.053Z,10.36
2023-09-17T01:11:15.905Z,10.37
2023-09-17T01:13:59.910Z,10.38
2023-09-17T01:16:28.091Z,10.41
2023-09-17T01:18:55.592Z,10.42
2023-09-17T01:21:31.162Z,10.44
2023-09-17T01:24:15.366Z,10.44
2023-09-17T01:26:45.898Z,10.43
2023-09-17T01:29:22.617Z,10.42
2023-09-17T01:57:03.067Z,10.40
2023-09-17T01:59:30.624Z,10.39
2023-09-17T02:01:57.989Z,10.37
2023-09-17T02:04:25.643Z,10.37
2023-09-17T02:06:55.269Z,10.36
2023-09-17T02:09:22.898Z,10.36
2023-09-17T02:11:50.947Z,10.35
2023-09-17T02:14:18.264Z,10.37
2023-09-17T02:16:45.626Z,10.34
2023-09-17T02:19:13.089Z,10.32
2023-09-17T02:21:41.412Z,10.29
2023-09-17T02:24:09.144Z,10.27
2023-09-17T02:26:36.456Z,10.26
2023-09-17T02:29:04.661Z,10.26
2023-09-17T02:31:32.518Z,10.26
2023-09-17T02:34:00.298Z,10.28
2023-09-17T02:36:27.771Z,10.27
2023-09-17T02:38:55.081Z,10.27
2023-09-17T02:41:23.023Z,10.28
2023-09-17T02:43:50.447Z,10.26
2023-09-17T02:46:19.578Z,10.25
2023-09-17T02:48:48.863Z,10.23
2023-09-17T02:51:16.532Z,10.22
2023-09-17T02:53:43.946Z,10.21
2023-09-17T02:56:11.237Z,10.18
2023-09-17T02:58:39.667Z,10.17
2023-09-17T03:01:19.310Z,10.15
2023-09-17T03:03:47.400Z,10.14
2023-09-17T03:06:15.088Z,10.14
2023-09-17T03:08:43.331Z,10.13
2023-09-17T03:11:15.239Z,10.13
2023-09-17T03:13:46.066Z,10.12
2023-09-17T03:16:16.517Z,10.12
2023-09-17T03:18:44.977Z,10.13
2023-09-17T03:21:12.952Z,10.15
2023-09-17T03:23:40.236Z,10.16
2023-09-17T03:26:10.089Z,10.19
2023-09-17T03:28:37.752Z,10.22
2023-09-17T03:31:06.477Z,10.23
2023-09-17T03:33:34.063Z,10.22
2023-09-17T03:36:02.176Z,10.24
2023-09-17T03:38:30.020Z,10.27
2023-09-17T03:41:00.569Z,10.29
2023-09-17T03:43:31.157Z,10.30
2023-09-17T03:46:00.063Z,10.31
2023-09-17T03:48:28.041Z,10.33
2023-09-17T03:50:55.342Z,10.37
2023-09-17T03:53:22.952Z,10.40
2023-09-17T03:55:51.331Z,10.45
2023-09-17T03:58:18.940Z,10.52
2023-09-17T04:00:46.292Z,10.58
2023-09-17T04:03:19.824Z,10.67
2023-09-17T04:05:49.480Z,10.75
2023-09-17T04:08:17.202Z,10.83
2023-09-17T04:10:44.753Z,10.92
2023-09-17T04:13:13.897Z,11.01
2023-09-17T04:15:41.435Z,11.10
2023-09-17T04:18:08.799Z,11.21
2023-09-17T04:20:36.889Z,11.37
2023-09-17T04:23:05.231Z,11.56
2023-09-17T04:25:33.729Z,11.77
2023-09-17T04:28:01.171Z,11.98
2023-09-17T04:30:29.453Z,12.18
2023-09-17T04:32:56.958Z,12.37
2023-09-17T04:35:24.915Z,12.53
2023-09-17T04:37:52.823Z,12.71
2023-09-17T04:40:32.162Z,12.91
2023-09-17T04:43:05.270Z,13.07
2023-09-17T04:45:38.799Z,13.22
2023-09-17T04:48:21.528Z,13.39
2023-09-17T04:50:49.378Z,13.54
2023-09-17T04:53:18.022Z,13.68
2023-09-17T04:55:47.463Z,13.82
2023-09-17T04:58:16.682Z,13.96
2023-09-17T05:00:48.823Z,14.09
2023-09-17T05:03:16.939Z,14.24
2023-09-17T05:05:44.978Z,14.36
2023-09-17T05:08:14.957Z,14.49
2023-09-17T05:10:42.326Z,14.61
2023-09-17T05:13:09.623Z,14.73
2023-09-17T05:15:38.092Z,14.86
2023-09-17T05:18:10.449Z,15.00
2023-09-17T05:20:45.087Z,15.17
2023-09-17T05:23:12.790Z,15.37
2023-09-17T05:25:40.548Z,15.55
2023-09-17T05:28:09.562Z,15.73
2023-09-17T05:30:37.662Z,15.91
2023-09-17T05:33:05.912Z,16.08
2023-09-17T05:35:34.007Z,16.24
2023-09-17T05:38:01.900Z,16.39
2023-09-17T05:40:29.290Z,16.55
2023-09-17T05:42:58.070Z,16.68
2023-09-17T05:45:26.901Z,16.86
2023-09-17T05:47:55.004Z,17.04
2023-09-17T05:50:22.879Z,17.23
2023-09-17T05:52:50.400Z,17.41
2023-09-17T05:55:18.677Z,17.60
2023-09-17T05:57:46.424Z,17.69
2023-09-17T06:00:14.271Z,17.75
2023-09-17T06:02:42.330Z,17.90
2023-09-17T06:05:12.653Z,18.21
2023-09-17T06:07:40.133Z,18.62
2023-09-17T06:10:07.678Z,19.03
2023-09-17T06:12:35.085Z,19.33
2023-09-17T06:15:04.204Z,19.66
2023-09-17T06:17:31.998Z,19.83
2023-09-17T06:19:59.340Z,20.07
2023-09-17T06:22:27.121Z,20.47
2023-09-17T06:24:54.618Z,20.86
2023-09-17T06:27:22.432Z,21.29
2023-09-17T06:29:49.665Z,21.55
2023-09-17T06:32:18.384Z,21.63
2023-09-17T06:34:46.060Z,21.88
2023-09-17T06:37:13.420Z,22.27
2023-09-17T06:39:40.848Z,22.69
2023-09-17T06:42:08.312Z,22.94
2023-09-17T06:44:35.665Z,23.03
2023-09-17T06:47:03.030Z,23.38
2023-09-17T06:49:30.617Z,23.78
2023-09-17T06:51:58.063Z,24.16
2023-09-17T06:54:25.348Z,24.26
2023-09-17T06:56:53.435Z,24.34
2023-09-17T06:59:21.060Z,24.57
2023-09-17T07:01:48.602Z,25.06
2023-09-17T07:04:16.033Z,25.41
2023-09-17T07:06:43.459Z,25.74
2023-09-17T07:09:10.814Z,26.14
2023-09-17T07:11:38.119Z,26.58
2023-09-17T07:14:11.063Z,27.03
2023-09-17T07:16:40.314Z,27.44
2023-09-17T07:19:07.978Z,27.86
2023-09-17T07:21:35.307Z,28.11
2023-09-17T07:24:02.684Z,28.13
2023-09-17T07:26:30.061Z,28.35
2023-09-17T07:28:57.697Z,28.70
2023-09-17T07:31:25.239Z,28.29
2023-09-17T07:33:52.982Z,28.39
2023-09-17T07:36:20.583Z,28.97
2023-09-17T07:38:47.970Z,29.49
2023-09-17T07:41:16.244Z,29.96
2023-09-17T07:43:43.821Z,29.72
2023-09-17T07:46:15.100Z,29.40
2023-09-17T07:48:42.524Z,29.19
2023-09-17T07:51:09.822Z,29.06
2023-09-17T07:53:37.224Z,29.53
2023-09-17T07:56:04.654Z,30.09
2023-09-17T07:58:32.158Z,30.73
2023-09-17T08:00:59.529Z,31.41
2023-09-17T08:03:27.063Z,32.09
2023-09-17T08:05:55.218Z,32.53
2023-09-17T08:08:22.678Z,32.85
2023-09-17T08:10:50.357Z,32.93
2023-09-17T08:13:17.945Z,33.29
2023-09-17T08:15:47.416Z,33.88
2023-09-17T08:18:14.777Z,33.78
2023-09-17T08:20:42.046Z,33.36
2023-09-17T08:23:09.761Z,33.54
2023-09-17T08:26:00.513Z,34.19
2023-09-17T08:28:48.877Z,34.86
2023-09-17T08:31:36.211Z,35.09
2023-09-17T08:34:23.514Z,34.73
2023-09-17T08:36:54.703Z,34.82
2023-09-17T08:39:22.182Z,35.28
2023-09-17T08:41:49.811Z,35.67
2023-09-17T08:44:18.521Z,36.08
2023-09-17T08:46:46.232Z,36.26
2023-09-17T08:49:13.736Z,36.34
2023-09-17T08:51:42.801Z,36.59
2023-09-17T08:54:22.106Z,36.92
2023-09-17T08:56:51.084Z,37.47
2023-09-17T08:59:26.469Z,37.70
2023-09-17T09:01:54.781Z,37.40
2023-09-17T09:04:22.497Z,37.00
2023-09-17T09:06:50.125Z,37.12
2023-09-17T09:09:17.647Z,37.28
2023-09-17T09:11:45.444Z,37.56
2023-09-17T09:14:12.785Z,38.01
2023-09-17T09:16:40.261Z,38.34
2023-09-17T09:19:09.108Z,38.22
2023-09-17T09:21:37.252Z,38.08
2023-09-17T09:24:04.604Z,37.87
2023-09-17T09:26:35.863Z,37.72
2023-09-17T09:29:05.269Z,37.94
2023-09-17T09:31:33.221Z,38.21
2023-09-17T09:34:01.410Z,38.43
2023-09-17T09:36:29.850Z,38.63
2023-09-17T09:38:57.802Z,38.84
2023-09-17T09:41:27.152Z,38.70
2023-09-17T09:43:55.041Z,38.55
2023-09-17T09:46:23.108Z,38.54
2023-09-17T09:48:52.116Z,38.57
2023-09-17T09:51:19.590Z,38.42
2023-09-17T09:53:46.892Z,38.23
2023-09-17T09:56:14.271Z,38.16
2023-09-17T09:58:41.657Z,38.32
2023-09-17T10:01:09.349Z,38.55
2023-09-17T10:03:36.674Z,38.49
2023-09-17T10:06:08.381Z,38.23
2023-09-17T10:08:38.197Z,38.19
2023-09-17T10:11:08.232Z,38.27
2023-09-17T10:13:36.466Z,38.81
2023-09-17T10:16:04.442Z,39.14
2023-09-17T10:18:33.832Z,39.26
2023-09-17T10:21:03.253Z,39.18
2023-09-17T10:23:32.319Z,38.33
2023-09-17T10:26:00.733Z,38.04
2023-09-17T10:28:28.808Z,38.42
2023-09-17T10:30:57.927Z,39.15
2023-09-17T10:33:26.342Z,39.36
2023-09-17T10:35:56.841Z,38.73
2023-09-17T10:38:26.007Z,38.20
2023-09-17T10:40:53.599Z,38.45
2023-09-17T10:43:21.975Z,39.29
2023-09-17T10:45:50.488Z,40.19
2023-09-17T10:48:18.830Z,41.00
2023-09-17T10:50:46.763Z,41.60
2023-09-17T10:53:14.196Z,41.94
2023-09-17T10:55:45.246Z,41.98
2023-09-17T10:58:15.519Z,42.24
2023-09-17T11:00:44.450Z,42.51
2023-09-17T11:03:14.608Z,42.94
2023-09-17T11:05:42.650Z,42.55
2023-09-17T11:08:10.595Z,42.04
2023-09-17T11:10:43.541Z,41.99
2023-09-17T11:13:12.631Z,41.92
2023-09-17T11:15:40.706Z,42.30
2023-09-17T11:18:08.839Z,42.63
2023-09-17T11:20:39.629Z,42.68
2023-09-17T11:23:07.097Z,42.44
2023-09-17T11:25:38.145Z,41.88
2023-09-17T11:28:10.072Z,41.46
2023-09-17T11:30:57.233Z,41.31
2023-09-17T11:33:25.389Z,41.34
2023-09-17T11:35:53.407Z,41.19
2023-09-17T11:38:28.063Z,40.91
2023-09-17T11:41:04.491Z,40.90
2023-09-17T11:43:33.598Z,40.59
2023-09-17T11:46:03.526Z,39.73
2023-09-17T11:48:32.739Z,39.44
2023-09-17T11:51:21.321Z,39.43
2023-09-17T11:53:58.406Z,39.43
2023-09-17T11:56:28.427Z,39.37
2023-09-17T11:59:04.240Z,39.19
2023-09-17T12:01:53.967Z,38.93
2023-09-17T12:04:23.875Z,38.64
2023-09-17T12:06:51.907Z,38.33
2023-09-17T12:09:32.663Z,38.03
2023-09-17T12:12:00.665Z,38.09
2023-09-17T12:14:28.417Z,38.14
2023-09-17T12:16:56.309Z,38.08
2023-09-17T12:19:24.000Z,38.21
2023-09-17T12:21:56.406Z,37.82
2023-09-17T12:24:36.075Z,37.55
2023-09-17T12:27:07.865Z,36.82
2023-09-17T12:29:37.072Z,36.79
2023-09-17T12:32:05.190Z,36.94
2023-09-17T12:34:35.864Z,37.05
2023-09-17T12:37:03.910Z,36.91
2023-09-17T12:39:31.781Z,36.62
2023-09-17T12:41:59.141Z,36.63
2023-09-17T12:44:27.694Z,36.98
2023-09-17T12:46:55.319Z,37.85
2023-09-17T12:49:23.271Z,38.38
2023-09-17T12:51:52.841Z,36.62
2023-09-17T12:54:23.574Z,33.77
2023-09-17T12:56:52.055Z,31.29
2023-09-17T12:59:32.461Z,29.38
2023-09-17T13:02:00.898Z,27.79
2023-09-17T13:04:41.424Z,26.58
2023-09-17T13:07:20.070Z,25.46
2023-09-17T13:09:48.403Z,24.47
2023-09-17T13:12:19.223Z,23.69
2023-09-17T13:14:51.965Z,23.15
2023-09-17T13:17:20.950Z,22.48
2023-09-17T13:19:48.844Z,22.09
2023-09-17T13:22:17.403Z,21.85
2023-09-17T13:24:45.754Z,21.59
2023-09-17T13:27:16.535Z,21.39
2023-09-17T13:29:48.005Z,21.36
2023-09-17T13:32:17.623Z,20.89
2023-09-17T13:34:45.884Z,20.68
2023-09-17T13:37:13.732Z,20.43
2023-09-17T13:39:45.215Z,20.25
2023-09-17T13:42:13.155Z,20.29
2023-09-17T13:44:40.709Z,20.02
2023-09-17T13:47:09.308Z,19.76
2023-09-17T13:49:36.728Z,19.67
2023-09-17T13:52:04.575Z,19.59
2023-09-17T13:54:31.935Z,19.50
2023-09-17T13:56:59.219Z,19.47
2023-09-17T13:59:26.572Z,19.36
2023-09-17T14:01:53.944Z,19.28
2023-09-17T14:04:21.367Z,19.13
2023-09-17T14:06:52.694Z,19.01
2023-09-17T14:09:20.045Z,19.05
2023-09-17T14:11:47.323Z,18.98
2023-09-17T14:14:14.802Z,18.88
2023-09-17T14:16:42.659Z,18.77
2023-09-17T14:19:09.989Z,18.67
2023-09-17T14:21:39.068Z,18.66
2023-09-17T14:24:06.589Z,18.42
2023-09-17T14:26:33.868Z,18.33
2023-09-17T14:29:01.269Z,18.25
2023-09-17T14:31:29.005Z,18.16
2023-09-17T14:33:56.450Z,18.15
2023-09-17T14:36:23.830Z,18.04
2023-09-17T14:38:51.368Z,17.95
2023-09-17T14:41:18.902Z,17.90
2023-09-17T14:43:46.348Z,17.92
2023-09-17T14:46:13.758Z,17.91
2023-09-17T14:48:41.165Z,18.00
2023-09-17T14:51:08.504Z,17.86
2023-09-17T14:53:35.817Z,17.84
2023-09-17T14:56:03.194Z,17.76
2023-09-17T14:58:30.622Z,17.64
2023-09-17T15:00:58.463Z,17.54
2023-09-17T15:03:30.153Z,17.47
2023-09-17T15:05:57.728Z,17.47
2023-09-17T15:08:24.992Z,17.47
2023-09-17T15:10:52.349Z,17.40
2023-09-17T15:13:19.582Z,17.37
2023-09-17T15:15:50.224Z,17.36
2023-09-17T15:18:17.723Z,17.27
2023-09-17T15:20:46.512Z,17.13
2023-09-17T15:23:13.974Z,17.17
2023-09-17T15:25:41.333Z,17.11
2023-09-17T15:28:08.800Z,17.06
2023-09-17T15:30:36.145Z,17.04
2023-09-17T15:33:03.779Z,16.97
2023-09-17T15:35:32.359Z,16.93
2023-09-17T15:38:06.791Z,16.94
2023-09-17T15:40:35.474Z,16.86
2023-09-17T15:43:03.236Z,16.79
2023-09-17T15:45:30.731Z,16.73
2023-09-17T15:47:58.244Z,16.67
2023-09-17T15:50:25.671Z,16.64
2023-09-17T15:52:53.113Z,16.60
2023-09-17T15:55:20.554Z,16.58
2023-09-17T15:57:48.222Z,16.57
2023-09-17T16:00:15.801Z,16.54
2023-09-17T16:02:43.706Z,16.49
2023-09-17T16:05:11.751Z,16.45
2023-09-17T16:07:45.508Z,16.40
2023-09-17T16:10:15.228Z,16.33
2023-09-17T16:12:42.526Z,16.28
2023-09-17T16:15:10.207Z,16.25
2023-09-17T16:17:38.997Z,16.20
2023-09-17T16:20:07.389Z,16.18
2023-09-17T16:22:35.121Z,16.14
2023-09-17T16:25:05.080Z,16.12
2023-09-17T16:27:32.673Z,16.09
2023-09-17T16:30:00.291Z,16.06
2023-09-17T16:32:29.566Z,16.04
2023-09-17T16:34:57.108Z,16.03
2023-09-17T16:37:24.579Z,16.02
2023-09-17T16:39:52.055Z,16.01
2023-09-17T16:42:19.542Z,15.98
2023-09-17T16:44:46.994Z,15.96
2023-09-17T16:47:15.002Z,15.95
2023-09-17T16:49:42.718Z,15.93
2023-09-17T16:52:10.041Z,15.92
2023-09-17T16:54:37.824Z,15.89
2023-09-17T16:57:05.489Z,15.85
2023-09-17T16:59:32.883Z,15.83
2023-09-17T17:02:00.278Z,15.81
2023-09-17T17:04:28.288Z,15.79
2023-09-17T17:06:55.731Z,15.75
2023-09-17T17:09:23.208Z,15.72
2023-09-17T17:11:51.525Z,15.69
2023-09-17T17:14:18.923Z,15.66
2023-09-17T17:16:46.257Z,15.64
2023-09-17T17:19:13.660Z,15.61
2023-09-17T17:21:40.928Z,15.58
2023-09-17T17:24:08.478Z,15.57
2023-09-17T17:26:38.856Z,15.53
2023-09-17T17:29:06.265Z,15.52
2023-09-17T17:31:35.173Z,15.51
2023-09-17T17:34:02.536Z,15.52
2023-09-17T17:36:30.205Z,15.51
2023-09-17T17:38:57.513Z,15.48
2023-09-17T17:41:24.812Z,15.45
2023-09-17T17:43:52.497Z,15.44
2023-09-17T17:46:20.452Z,15.42
2023-09-17T17:48:48.596Z,15.40
2023-09-17T17:51:16.066Z,15.36
2023-09-17T17:53:43.383Z,15.33
2023-09-17T17:56:11.524Z,15.32
2023-09-17T17:58:38.972Z,15.30
2023-09-17T18:01:06.443Z,15.30
2023-09-17T18:03:33.937Z,15.27
2023-09-17T18:06:01.480Z,15.27
2023-09-17T18:08:28.861Z,15.26
2023-09-17T18:10:56.371Z,15.24
2023-09-17T18:13:23.821Z,15.23
2023-09-17T18:15:52.315Z,15.21
2023-09-17T18:18:19.891Z,15.19
2023-09-17T18:20:47.230Z,15.17
2023-09-17T18:23:15.413Z,15.15
2023-09-17T18:25:43.327Z,15.12
2023-09-17T18:28:10.821Z,15.08
2023-09-17T18:30:38.658Z,15.06
2023-09-17T18:33:07.603Z,15.04
2023-09-17T18:35:35.034Z,15.02
2023-09-17T18:38:03.531Z,14.99
2023-09-17T18:40:30.915Z,14.97
2023-09-17T18:42:58.283Z,14.96
2023-09-17T18:45:25.627Z,14.94
2023-09-17T18:47:53.051Z,14.90
2023-09-17T18:50:20.471Z,14.88
2023-09-17T18:52:47.956Z,14.89
2023-09-17T18:55:15.308Z,14.88
2023-09-17T18:57:42.746Z,14.90
2023-09-17T19:00:11.680Z,14.88
2023-09-17T19:02:44.693Z,14.88
2023-09-17T19:05:13.755Z,14.90
2023-09-17T19:07:41.241Z,14.91
2023-09-17T19:10:12.283Z,14.92
2023-09-17T19:12:39.883Z,14.88
2023-09-17T19:15:07.959Z,14.88
2023-09-17T19:17:36.018Z,14.90
2023-09-17T19:20:04.316Z,14.91
2023-09-17T19:22:31.649Z,14.91
2023-09-17T19:24:59.402Z,14.90
2023-09-17T19:27:26.724Z,14.89
2023-09-17T19:29:54.117Z,14.90
2023-09-17T19:32:21.538Z,14.91
2023-09-17T19:34:49.273Z,15.01
2023-09-17T19:37:16.618Z,14.99
2023-09-17T19:39:44.022Z,15.00
2023-09-17T19:42:13.341Z,15.00
2023-09-17T19:44:40.806Z,14.98
2023-09-17T19:47:08.297Z,15.00
2023-09-17T19:49:35.767Z,15.01
2023-09-17T19:52:03.130Z,14.99
2023-09-17T19:54:30.491Z,14.98
2023-09-17T19:56:57.752Z,14.98
2023-09-17T19:59:25.210Z,14.98
2023-09-17T20:01:52.675Z,15.09
2023-09-17T20:04:20.127Z,15.07
2023-09-17T20:06:54.543Z,15.02
2023-09-17T20:09:23.097Z,14.98
2023-09-17T20:11:50.452Z,14.94
2023-09-17T20:14:17.951Z,15.04
2023-09-17T20:16:45.605Z,15.00
2023-09-17T20:19:13.038Z,14.99
2023-09-17T20:21:40.775Z,14.93
2023-09-17T20:24:08.350Z,14.98
2023-09-17T20:26:37.973Z,14.94
2023-09-17T20:29:05.763Z,14.92
2023-09-17T20:31:33.553Z,14.87
2023-09-17T20:34:01.057Z,14.83
2023-09-17T20:36:28.405Z,14.84
2023-09-17T20:38:57.863Z,14.85
2023-09-17T20:41:26.861Z,14.83
2023-09-17T20:43:54.505Z,14.82
2023-09-17T20:46:22.263Z,14.78
2023-09-17T20:48:50.064Z,14.76
2023-09-17T20:51:17.892Z,14.77
2023-09-17T20:53:45.236Z,14.84
2023-09-17T20:56:13.058Z,14.83
2023-09-17T20:58:41.433Z,14.86
2023-09-17T21:01:08.841Z,14.78
2023-09-17T21:03:36.321Z,14.74
2023-09-17T21:06:04.466Z,14.66
2023-09-17T21:08:31.880Z,14.63
2023-09-17T21:10:59.477Z,14.63
2023-09-17T21:13:26.901Z,14.65
2023-09-17T21:15:54.681Z,14.60
2023-09-17T21:18:22.110Z,14.49
2023-09-17T21:20:51.085Z,14.48
2023-09-17T21:23:18.522Z,14.43
2023-09-17T21:25:45.800Z,14.40
2023-09-17T21:28:13.127Z,14.36
2023-09-17T21:30:42.229Z,14.32
2023-09-17T21:33:09.658Z,14.29
2023-09-17T21:35:37.243Z,14.30
2023-09-17T21:38:04.799Z,14.26
2023-09-17T21:40:32.288Z,14.27
2023-09-17T21:42:59.667Z,14.27
2023-09-17T21:45:27.607Z,14.23
2023-09-17T21:47:55.529Z,14.19
2023-09-17T21:50:22.980Z,14.11
2023-09-17T21:52:50.446Z,14.04
2023-09-17T21:55:17.919Z,14.01
2023-09-17T21:57:45.645Z,13.98
2023-09-17T22:00:24.760Z,13.93
2023-09-17T22:02:52.632Z,13.93
2023-09-17T22:05:22.906Z,13.89
2023-09-17T22:07:50.347Z,13.86
2023-09-17T22:10:18.763Z,13.84
2023-09-17T22:12:46.530Z,13.82
2023-09-17T22:15:13.823Z,13.79
2023-09-17T22:17:41.354Z,13.77
2023-09-17T22:20:15.467Z,13.76
2023-09-17T22:22:43.194Z,13.74
2023-09-17T22:25:11.455Z,13.72
2023-09-17T22:27:38.822Z,13.71
2023-09-17T22:30:06.910Z,13.69
2023-09-17T22:32:35.097Z,13.69
2023-09-17T22:35:02.703Z,13.64
2023-09-17T22:37:30.612Z,13.63
2023-09-17T22:39:57.922Z,13.62
2023-09-17T22:42:25.258Z,13.59
2023-09-17T22:44:52.612Z,13.58
2023-09-17T22:47:20.705Z,13.56
2023-09-17T22:49:47.976Z,13.54
2023-09-17T22:52:15.348Z,13.53
2023-09-17T22:54:42.641Z,13.52
2023-09-17T22:57:10.055Z,13.50
2023-09-17T22:59:38.629Z,13.46
2023-09-17T23:02:06.297Z,13.43
2023-09-17T23:04:33.634Z,13.39
2023-09-17T23:07:01.553Z,13.37
2023-09-17T23:09:28.954Z,13.32
2023-09-17T23:11:56.216Z,13.29
2023-09-17T23:14:23.673Z,13.26
2023-09-17T23:16:51.007Z,13.23
2023-09-17T23:19:18.341Z,13.21
2023-09-17T23:21:45.991Z,13.19
2023-09-17T23:24:13.238Z,13.16
2023-09-17T23:26:41.108Z,13.13
2023-09-17T23:29:09.656Z,13.09
2023-09-17T23:31:39.062Z,13.07
2023-09-17T23:34:06.832Z,13.06
2023-09-17T23:36:35.415Z,13.06
2023-09-17T23:39:03.057Z,13.05
2023-09-17T23:41:30.678Z,13.04
2023-09-17T23:43:58.123Z,13.01
2023-09-17T23:46:25.560Z,12.98
2023-09-17T23:48:53.056Z,12.97
2023-09-17T23:51:20.572Z,12.98
2023-09-17T23:53:47.815Z,12.99
2023-09-17T23:56:15.440Z,13.01
2023-09-17T23:58:42.788Z,13.04
